sensor_id;sensor_type;location;lat;lon;timestamp;P1;durP1;ratioP1;P2;durP2;ratioP2
3274;SDS011;1649;53.672;10.064;2023-07-28T00:00:56;15.10;;;9.87;;
3274;SDS011;1649;53.672;10.064;2023-07-28T00:03:21;14.20;;;10.13;;
3274;SDS011;1649;53.672;10.064;2023-07-28T00:05:47;14.30;;;10.57;;
3274;SDS011;1649;53.672;10.064;2023-07-28T00:08:12;17.33;;;11.20;;
3274;SDS011;1649;53.672;10.064;2023-07-28T00:10:41;16.00;;;10.07;;
3274;SDS011;1649;53.672;10.064;2023-07-28T00:13:07;15.97;;;9.90;;
3274;SDS011;1649;53.672;10.064;2023-07-28T00:15:33;15.53;;;10.73;;
3274;SDS011;1649;53.672;10.064;2023-07-28T00:17:59;16.83;;;10.30;;
3274;SDS011;1649;53.672;10.064;2023-07-28T00:20:27;14.50;;;11.13;;
3274;SDS011;1649;53.672;10.064;2023-07-28T00:22:53;14.37;;;11.40;;
3274;SDS011;1649;53.672;10.064;2023-07-28T00:25:18;17.77;;;11.40;;
3274;SDS011;1649;53.672;10.064;2023-07-28T00:27:44;14.13;;;10.70;;
3274;SDS011;1649;53.672;10.064;2023-07-28T00:30:10;16.60;;;11.13;;
3274;SDS011;1649;53.672;10.064;2023-07-28T00:32:36;14.43;;;11.50;;
3274;SDS011;1649;53.672;10.064;2023-07-28T00:35:02;15.30;;;10.37;;
3274;SDS011;1649;53.672;10.064;2023-07-28T00:37:27;14.07;;;10.90;;
3274;SDS011;1649;53.672;10.064;2023-07-28T00:39:53;15.73;;;11.80;;
3274;SDS011;1649;53.672;10.064;2023-07-28T00:42:18;14.00;;;10.40;;
3274;SDS011;1649;53.672;10.064;2023-07-28T00:44:44;14.27;;;10.57;;
3274;SDS011;1649;53.672;10.064;2023-07-28T00:47:09;15.60;;;10.83;;
3274;SDS011;1649;53.672;10.064;2023-07-28T00:49:35;15.53;;;11.67;;
3274;SDS011;1649;53.672;10.064;2023-07-28T00:52:02;15.50;;;10.90;;
3274;SDS011;1649;53.672;10.064;2023-07-28T00:54:27;14.50;;;10.10;;
3274;SDS011;1649;53.672;10.064;2023-07-28T00:56:53;13.60;;;10.93;;
3274;SDS011;1649;53.672;10.064;2023-07-28T00:59:18;13.63;;;10.03;;
3274;SDS011;1649;53.672;10.064;2023-07-28T01:01:45;14.60;;;10.00;;
3274;SDS011;1649;53.672;10.064;2023-07-28T01:04:10;15.10;;;10.60;;
3274;SDS011;1649;53.672;10.064;2023-07-28T01:06:57;12.77;;;10.33;;
3274;SDS011;1649;53.672;10.064;2023-07-28T01:09:29;15.27;;;10.67;;
3274;SDS011;1649;53.672;10.064;2023-07-28T01:12:07;15.47;;;11.07;;
3274;SDS011;1649;53.672;10.064;2023-07-28T01:14:34;16.33;;;10.87;;
3274;SDS011;1649;53.672;10.064;2023-07-28T01:16:59;14.30;;;9.73;;
3274;SDS011;1649;53.672;10.064;2023-07-28T01:19:25;14.83;;;9.87;;
3274;SDS011;1649;53.672;10.064;2023-07-28T01:21:57;14.10;;;9.80;;
3274;SDS011;1649;53.672;10.064;2023-07-28T01:24:51;16.40;;;10.67;;
3274;SDS011;1649;53.672;10.064;2023-07-28T01:27:28;14.17;;;10.17;;
3274;SDS011;1649;53.672;10.064;2023-07-28T01:29:54;13.00;;;9.40;;
3274;SDS011;1649;53.672;10.064;2023-07-28T01:32:20;14.77;;;11.00;;
3274;SDS011;1649;53.672;10.064;2023-07-28T01:34:45;15.87;;;11.33;;
3274;SDS011;1649;53.672;10.064;2023-07-28T01:37:11;14.57;;;10.80;;
3274;SDS011;1649;53.672;10.064;2023-07-28T01:39:36;13.07;;;9.83;;
3274;SDS011;1649;53.672;10.064;2023-07-28T01:42:01;12.70;;;9.97;;
3274;SDS011;1649;53.672;10.064;2023-07-28T01:44:27;12.90;;;9.60;;
3274;SDS011;1649;53.672;10.064;2023-07-28T01:46:53;12.40;;;9.33;;
3274;SDS011;1649;53.672;10.064;2023-07-28T01:49:19;14.10;;;9.77;;
3274;SDS011;1649;53.672;10.064;2023-07-28T01:51:44;12.70;;;9.40;;
3274;SDS011;1649;53.672;10.064;2023-07-28T01:54:10;12.60;;;8.67;;
3274;SDS011;1649;53.672;10.064;2023-07-28T01:56:35;13.60;;;10.00;;
3274;SDS011;1649;53.672;10.064;2023-07-28T01:59:01;13.47;;;10.37;;
3274;SDS011;1649;53.672;10.064;2023-07-28T02:01:26;15.20;;;10.03;;
3274;SDS011;1649;53.672;10.064;2023-07-28T02:03:52;11.10;;;8.23;;
3274;SDS011;1649;53.672;10.064;2023-07-28T02:06:17;12.60;;;9.03;;
3274;SDS011;1649;53.672;10.064;2023-07-28T02:08:43;14.37;;;10.20;;
3274;SDS011;1649;53.672;10.064;2023-07-28T02:11:08;11.43;;;7.90;;
3274;SDS011;1649;53.672;10.064;2023-07-28T02:13:34;12.67;;;9.53;;
3274;SDS011;1649;53.672;10.064;2023-07-28T02:16:00;12.80;;;9.53;;
3274;SDS011;1649;53.672;10.064;2023-07-28T02:18:25;12.90;;;9.43;;
3274;SDS011;1649;53.672;10.064;2023-07-28T02:20:51;14.50;;;9.43;;
3274;SDS011;1649;53.672;10.064;2023-07-28T02:23:16;13.07;;;9.27;;
3274;SDS011;1649;53.672;10.064;2023-07-28T02:25:42;13.80;;;10.17;;
3274;SDS011;1649;53.672;10.064;2023-07-28T02:28:09;13.43;;;9.57;;
3274;SDS011;1649;53.672;10.064;2023-07-28T02:30:36;14.87;;;10.03;;
3274;SDS011;1649;53.672;10.064;2023-07-28T02:33:01;12.07;;;8.67;;
3274;SDS011;1649;53.672;10.064;2023-07-28T02:35:27;13.10;;;9.27;;
3274;SDS011;1649;53.672;10.064;2023-07-28T02:37:52;13.37;;;10.13;;
3274;SDS011;1649;53.672;10.064;2023-07-28T02:40:18;15.40;;;10.60;;
3274;SDS011;1649;53.672;10.064;2023-07-28T02:42:43;12.57;;;9.50;;
3274;SDS011;1649;53.672;10.064;2023-07-28T02:45:09;14.00;;;9.90;;
3274;SDS011;1649;53.672;10.064;2023-07-28T02:47:35;16.10;;;10.67;;
3274;SDS011;1649;53.672;10.064;2023-07-28T02:50:00;12.00;;;8.43;;
3274;SDS011;1649;53.672;10.064;2023-07-28T02:52:26;13.67;;;9.13;;
3274;SDS011;1649;53.672;10.064;2023-07-28T02:54:51;12.67;;;8.97;;
3274;SDS011;1649;53.672;10.064;2023-07-28T02:57:17;12.40;;;9.43;;
3274;SDS011;1649;53.672;10.064;2023-07-28T02:59:42;12.80;;;9.17;;
3274;SDS011;1649;53.672;10.064;2023-07-28T03:02:08;13.70;;;8.77;;
3274;SDS011;1649;53.672;10.064;2023-07-28T03:04:33;11.20;;;8.33;;
3274;SDS011;1649;53.672;10.064;2023-07-28T03:06:59;11.63;;;8.30;;
3274;SDS011;1649;53.672;10.064;2023-07-28T03:09:24;10.60;;;7.73;;
3274;SDS011;1649;53.672;10.064;2023-07-28T03:11:50;13.70;;;8.13;;
3274;SDS011;1649;53.672;10.064;2023-07-28T03:14:15;10.77;;;7.93;;
3274;SDS011;1649;53.672;10.064;2023-07-28T03:16:41;12.00;;;8.67;;
3274;SDS011;1649;53.672;10.064;2023-07-28T03:19:07;9.87;;;7.40;;
3274;SDS011;1649;53.672;10.064;2023-07-28T03:21:32;11.03;;;7.20;;
3274;SDS011;1649;53.672;10.064;2023-07-28T03:23:58;11.10;;;7.60;;
3274;SDS011;1649;53.672;10.064;2023-07-28T03:26:23;11.20;;;7.33;;
3274;SDS011;1649;53.672;10.064;2023-07-28T03:28:49;10.57;;;7.20;;
3274;SDS011;1649;53.672;10.064;2023-07-28T03:31:14;10.63;;;7.27;;
3274;SDS011;1649;53.672;10.064;2023-07-28T03:33:40;13.23;;;8.00;;
3274;SDS011;1649;53.672;10.064;2023-07-28T03:36:05;10.90;;;7.63;;
3274;SDS011;1649;53.672;10.064;2023-07-28T03:38:31;13.30;;;9.07;;
3274;SDS011;1649;53.672;10.064;2023-07-28T03:40:56;14.43;;;9.33;;
3274;SDS011;1649;53.672;10.064;2023-07-28T03:43:22;11.70;;;7.70;;
3274;SDS011;1649;53.672;10.064;2023-07-28T03:45:47;11.97;;;8.33;;
3274;SDS011;1649;53.672;10.064;2023-07-28T03:48:13;12.90;;;8.60;;
3274;SDS011;1649;53.672;10.064;2023-07-28T03:50:38;16.40;;;10.13;;
3274;SDS011;1649;53.672;10.064;2023-07-28T03:53:04;17.47;;;8.90;;
3274;SDS011;1649;53.672;10.064;2023-07-28T03:55:29;12.33;;;8.60;;
3274;SDS011;1649;53.672;10.064;2023-07-28T03:57:55;14.77;;;9.60;;
3274;SDS011;1649;53.672;10.064;2023-07-28T04:00:20;14.53;;;9.90;;
3274;SDS011;1649;53.672;10.064;2023-07-28T04:02:46;12.87;;;8.80;;
3274;SDS011;1649;53.672;10.064;2023-07-28T04:05:12;12.73;;;9.13;;
3274;SDS011;1649;53.672;10.064;2023-07-28T04:07:37;13.17;;;9.50;;
3274;SDS011;1649;53.672;10.064;2023-07-28T04:10:03;15.13;;;10.60;;
3274;SDS011;1649;53.672;10.064;2023-07-28T04:12:29;13.20;;;9.03;;
3274;SDS011;1649;53.672;10.064;2023-07-28T04:14:54;15.23;;;11.60;;
3274;SDS011;1649;53.672;10.064;2023-07-28T04:17:20;15.67;;;11.57;;
3274;SDS011;1649;53.672;10.064;2023-07-28T04:19:45;11.40;;;8.43;;
3274;SDS011;1649;53.672;10.064;2023-07-28T04:22:11;14.07;;;9.50;;
3274;SDS011;1649;53.672;10.064;2023-07-28T04:24:36;14.87;;;9.97;;
3274;SDS011;1649;53.672;10.064;2023-07-28T04:27:02;13.03;;;9.67;;
3274;SDS011;1649;53.672;10.064;2023-07-28T04:29:27;12.80;;;9.17;;
3274;SDS011;1649;53.672;10.064;2023-07-28T04:31:53;18.77;;;10.10;;
3274;SDS011;1649;53.672;10.064;2023-07-28T04:34:19;13.37;;;9.57;;
3274;SDS011;1649;53.672;10.064;2023-07-28T04:36:44;13.53;;;9.50;;
3274;SDS011;1649;53.672;10.064;2023-07-28T04:39:10;14.63;;;11.37;;
3274;SDS011;1649;53.672;10.064;2023-07-28T04:41:35;14.73;;;10.50;;
3274;SDS011;1649;53.672;10.064;2023-07-28T04:44:01;14.60;;;10.00;;
3274;SDS011;1649;53.672;10.064;2023-07-28T04:46:26;14.70;;;10.30;;
3274;SDS011;1649;53.672;10.064;2023-07-28T04:48:53;12.80;;;9.80;;
3274;SDS011;1649;53.672;10.064;2023-07-28T04:51:20;14.20;;;10.50;;
3274;SDS011;1649;53.672;10.064;2023-07-28T04:53:45;13.20;;;9.80;;
3274;SDS011;1649;53.672;10.064;2023-07-28T04:56:10;11.90;;;8.23;;
3274;SDS011;1649;53.672;10.064;2023-07-28T04:58:36;12.97;;;9.87;;
3274;SDS011;1649;53.672;10.064;2023-07-28T05:01:01;12.40;;;9.27;;
3274;SDS011;1649;53.672;10.064;2023-07-28T05:03:27;12.87;;;8.70;;
3274;SDS011;1649;53.672;10.064;2023-07-28T05:05:53;12.20;;;9.27;;
3274;SDS011;1649;53.672;10.064;2023-07-28T05:08:18;12.13;;;8.90;;
3274;SDS011;1649;53.672;10.064;2023-07-28T05:10:44;12.37;;;9.00;;
3274;SDS011;1649;53.672;10.064;2023-07-28T05:13:09;10.70;;;8.50;;
3274;SDS011;1649;53.672;10.064;2023-07-28T05:15:34;14.57;;;9.40;;
3274;SDS011;1649;53.672;10.064;2023-07-28T05:18:00;12.73;;;9.30;;
3274;SDS011;1649;53.672;10.064;2023-07-28T05:20:25;12.70;;;9.20;;
3274;SDS011;1649;53.672;10.064;2023-07-28T05:22:52;12.30;;;9.27;;
3274;SDS011;1649;53.672;10.064;2023-07-28T05:25:18;15.60;;;9.83;;
3274;SDS011;1649;53.672;10.064;2023-07-28T05:27:43;13.00;;;9.03;;
3274;SDS011;1649;53.672;10.064;2023-07-28T05:30:09;11.77;;;9.00;;
3274;SDS011;1649;53.672;10.064;2023-07-28T05:32:35;13.90;;;9.00;;
3274;SDS011;1649;53.672;10.064;2023-07-28T05:35:00;11.73;;;8.60;;
3274;SDS011;1649;53.672;10.064;2023-07-28T05:37:26;11.03;;;8.50;;
3274;SDS011;1649;53.672;10.064;2023-07-28T05:39:51;14.77;;;10.13;;
3274;SDS011;1649;53.672;10.064;2023-07-28T05:42:16;10.80;;;8.20;;
3274;SDS011;1649;53.672;10.064;2023-07-28T05:44:42;10.60;;;7.80;;
3274;SDS011;1649;53.672;10.064;2023-07-28T05:47:07;10.10;;;7.60;;
3274;SDS011;1649;53.672;10.064;2023-07-28T05:49:33;11.67;;;8.00;;
3274;SDS011;1649;53.672;10.064;2023-07-28T05:51:58;11.30;;;8.40;;
3274;SDS011;1649;53.672;10.064;2023-07-28T05:54:24;11.50;;;8.40;;
3274;SDS011;1649;53.672;10.064;2023-07-28T05:56:49;9.10;;;7.10;;
3274;SDS011;1649;53.672;10.064;2023-07-28T05:59:15;10.47;;;7.23;;
3274;SDS011;1649;53.672;10.064;2023-07-28T06:01:41;10.80;;;8.20;;
3274;SDS011;1649;53.672;10.064;2023-07-28T06:04:06;10.17;;;8.00;;
3274;SDS011;1649;53.672;10.064;2023-07-28T06:06:32;9.67;;;7.30;;
3274;SDS011;1649;53.672;10.064;2023-07-28T06:08:57;12.37;;;8.23;;
3274;SDS011;1649;53.672;10.064;2023-07-28T06:11:23;9.37;;;7.50;;
3274;SDS011;1649;53.672;10.064;2023-07-28T06:13:48;9.30;;;7.17;;
3274;SDS011;1649;53.672;10.064;2023-07-28T06:16:14;9.30;;;7.10;;
3274;SDS011;1649;53.672;10.064;2023-07-28T06:18:40;9.83;;;7.47;;
3274;SDS011;1649;53.672;10.064;2023-07-28T06:21:05;9.50;;;7.47;;
3274;SDS011;1649;53.672;10.064;2023-07-28T06:23:31;10.10;;;7.80;;
3274;SDS011;1649;53.672;10.064;2023-07-28T06:25:56;9.80;;;7.63;;
3274;SDS011;1649;53.672;10.064;2023-07-28T06:28:22;7.90;;;6.17;;
3274;SDS011;1649;53.672;10.064;2023-07-28T06:30:47;9.17;;;6.70;;
3274;SDS011;1649;53.672;10.064;2023-07-28T06:33:22;9.73;;;7.20;;
3274;SDS011;1649;53.672;10.064;2023-07-28T06:35:49;12.87;;;8.63;;
3274;SDS011;1649;53.672;10.064;2023-07-28T06:38:14;8.73;;;6.23;;
3274;SDS011;1649;53.672;10.064;2023-07-28T06:40:40;10.77;;;8.60;;
3274;SDS011;1649;53.672;10.064;2023-07-28T06:43:05;8.80;;;6.00;;
3274;SDS011;1649;53.672;10.064;2023-07-28T06:45:32;9.27;;;6.80;;
3274;SDS011;1649;53.672;10.064;2023-07-28T06:47:58;7.87;;;5.53;;
3274;SDS011;1649;53.672;10.064;2023-07-28T06:50:23;8.23;;;4.93;;
3274;SDS011;1649;53.672;10.064;2023-07-28T06:52:49;9.33;;;4.80;;
3274;SDS011;1649;53.672;10.064;2023-07-28T06:55:15;7.47;;;5.40;;
3274;SDS011;1649;53.672;10.064;2023-07-28T06:57:41;9.33;;;5.53;;
3274;SDS011;1649;53.672;10.064;2023-07-28T07:00:07;7.43;;;5.17;;
3274;SDS011;1649;53.672;10.064;2023-07-28T07:02:36;7.20;;;5.30;;
3274;SDS011;1649;53.672;10.064;2023-07-28T07:05:02;7.53;;;5.40;;
3274;SDS011;1649;53.672;10.064;2023-07-28T07:07:28;8.30;;;5.83;;
3274;SDS011;1649;53.672;10.064;2023-07-28T07:09:53;7.20;;;5.43;;
3274;SDS011;1649;53.672;10.064;2023-07-28T07:12:19;8.87;;;4.90;;
3274;SDS011;1649;53.672;10.064;2023-07-28T07:14:46;8.40;;;5.63;;
3274;SDS011;1649;53.672;10.064;2023-07-28T07:17:11;7.67;;;5.30;;
3274;SDS011;1649;53.672;10.064;2023-07-28T07:19:37;8.37;;;5.03;;
3274;SDS011;1649;53.672;10.064;2023-07-28T07:22:02;7.90;;;5.53;;
3274;SDS011;1649;53.672;10.064;2023-07-28T07:24:28;6.93;;;5.00;;
3274;SDS011;1649;53.672;10.064;2023-07-28T07:26:54;7.10;;;5.17;;
3274;SDS011;1649;53.672;10.064;2023-07-28T07:29:19;7.50;;;5.80;;
3274;SDS011;1649;53.672;10.064;2023-07-28T07:31:45;7.70;;;5.50;;
3274;SDS011;1649;53.672;10.064;2023-07-28T07:34:10;6.90;;;4.90;;
3274;SDS011;1649;53.672;10.064;2023-07-28T07:36:36;7.30;;;5.03;;
3274;SDS011;1649;53.672;10.064;2023-07-28T07:39:01;6.43;;;4.17;;
3274;SDS011;1649;53.672;10.064;2023-07-28T07:41:27;5.80;;;4.23;;
3274;SDS011;1649;53.672;10.064;2023-07-28T07:43:54;6.70;;;4.93;;
3274;SDS011;1649;53.672;10.064;2023-07-28T07:46:19;6.40;;;4.47;;
3274;SDS011;1649;53.672;10.064;2023-07-28T07:48:45;7.00;;;4.20;;
3274;SDS011;1649;53.672;10.064;2023-07-28T07:51:11;6.70;;;3.80;;
3274;SDS011;1649;53.672;10.064;2023-07-28T07:53:37;6.37;;;4.30;;
3274;SDS011;1649;53.672;10.064;2023-07-28T07:56:03;6.40;;;4.53;;
3274;SDS011;1649;53.672;10.064;2023-07-28T07:58:29;5.73;;;4.23;;
3274;SDS011;1649;53.672;10.064;2023-07-28T08:00:55;5.33;;;3.50;;
3274;SDS011;1649;53.672;10.064;2023-07-28T08:03:21;7.37;;;4.00;;
3274;SDS011;1649;53.672;10.064;2023-07-28T08:05:46;5.50;;;3.70;;
3274;SDS011;1649;53.672;10.064;2023-07-28T08:08:12;6.60;;;4.63;;
3274;SDS011;1649;53.672;10.064;2023-07-28T08:10:41;6.03;;;3.87;;
3274;SDS011;1649;53.672;10.064;2023-07-28T08:13:07;7.57;;;4.00;;
3274;SDS011;1649;53.672;10.064;2023-07-28T08:15:33;5.00;;;3.20;;
3274;SDS011;1649;53.672;10.064;2023-07-28T08:17:58;5.10;;;3.43;;
3274;SDS011;1649;53.672;10.064;2023-07-28T08:20:24;4.67;;;2.90;;
3274;SDS011;1649;53.672;10.064;2023-07-28T08:22:50;4.97;;;3.10;;
3274;SDS011;1649;53.672;10.064;2023-07-28T08:25:15;6.43;;;2.97;;
3274;SDS011;1649;53.672;10.064;2023-07-28T08:27:41;5.07;;;3.33;;
3274;SDS011;1649;53.672;10.064;2023-07-28T08:30:07;5.97;;;3.10;;
3274;SDS011;1649;53.672;10.064;2023-07-28T08:32:33;4.60;;;2.97;;
3274;SDS011;1649;53.672;10.064;2023-07-28T08:34:58;4.90;;;2.90;;
3274;SDS011;1649;53.672;10.064;2023-07-28T08:37:24;4.40;;;2.57;;
3274;SDS011;1649;53.672;10.064;2023-07-28T08:39:49;4.77;;;2.97;;
3274;SDS011;1649;53.672;10.064;2023-07-28T08:42:15;5.50;;;3.07;;
3274;SDS011;1649;53.672;10.064;2023-07-28T08:44:40;4.60;;;2.93;;
3274;SDS011;1649;53.672;10.064;2023-07-28T08:47:06;4.60;;;2.70;;
3274;SDS011;1649;53.672;10.064;2023-07-28T08:49:32;4.80;;;3.10;;
3274;SDS011;1649;53.672;10.064;2023-07-28T08:52:00;4.50;;;2.67;;
3274;SDS011;1649;53.672;10.064;2023-07-28T08:54:28;6.07;;;2.40;;
3274;SDS011;1649;53.672;10.064;2023-07-28T08:56:54;4.60;;;2.60;;
3274;SDS011;1649;53.672;10.064;2023-07-28T08:59:22;5.67;;;2.30;;
3274;SDS011;1649;53.672;10.064;2023-07-28T09:01:56;4.30;;;2.60;;
3274;SDS011;1649;53.672;10.064;2023-07-28T09:04:25;4.37;;;2.70;;
3274;SDS011;1649;53.672;10.064;2023-07-28T09:06:51;5.70;;;3.27;;
3274;SDS011;1649;53.672;10.064;2023-07-28T09:09:19;5.37;;;2.80;;
3274;SDS011;1649;53.672;10.064;2023-07-28T09:11:51;5.97;;;3.00;;
3274;SDS011;1649;53.672;10.064;2023-07-28T09:14:18;6.13;;;3.10;;
3274;SDS011;1649;53.672;10.064;2023-07-28T09:16:45;6.53;;;3.20;;
3274;SDS011;1649;53.672;10.064;2023-07-28T09:19:11;4.63;;;2.83;;
3274;SDS011;1649;53.672;10.064;2023-07-28T09:21:38;6.57;;;3.43;;
3274;SDS011;1649;53.672;10.064;2023-07-28T09:24:11;5.37;;;3.43;;
3274;SDS011;1649;53.672;10.064;2023-07-28T09:26:44;4.60;;;3.10;;
3274;SDS011;1649;53.672;10.064;2023-07-28T09:29:14;4.30;;;2.37;;
3274;SDS011;1649;53.672;10.064;2023-07-28T09:31:42;4.60;;;2.53;;
3274;SDS011;1649;53.672;10.064;2023-07-28T09:34:09;4.43;;;2.70;;
3274;SDS011;1649;53.672;10.064;2023-07-28T09:36:35;4.50;;;2.80;;
3274;SDS011;1649;53.672;10.064;2023-07-28T09:39:03;4.50;;;2.63;;
3274;SDS011;1649;53.672;10.064;2023-07-28T09:41:36;4.80;;;3.03;;
3274;SDS011;1649;53.672;10.064;2023-07-28T09:44:05;5.13;;;2.83;;
3274;SDS011;1649;53.672;10.064;2023-07-28T09:46:34;4.83;;;2.93;;
3274;SDS011;1649;53.672;10.064;2023-07-28T09:49:07;5.70;;;3.17;;
3274;SDS011;1649;53.672;10.064;2023-07-28T09:51:36;5.50;;;3.17;;
3274;SDS011;1649;53.672;10.064;2023-07-28T09:54:04;5.00;;;3.17;;
3274;SDS011;1649;53.672;10.064;2023-07-28T09:56:31;5.10;;;2.90;;
3274;SDS011;1649;53.672;10.064;2023-07-28T09:58:58;4.70;;;3.00;;
3274;SDS011;1649;53.672;10.064;2023-07-28T10:01:26;4.37;;;2.67;;
3274;SDS011;1649;53.672;10.064;2023-07-28T10:03:53;4.23;;;2.60;;
3274;SDS011;1649;53.672;10.064;2023-07-28T10:06:19;4.70;;;2.73;;
3274;SDS011;1649;53.672;10.064;2023-07-28T10:08:45;4.73;;;2.60;;
3274;SDS011;1649;53.672;10.064;2023-07-28T10:11:17;4.10;;;2.50;;
3274;SDS011;1649;53.672;10.064;2023-07-28T10:13:43;4.60;;;2.77;;
3274;SDS011;1649;53.672;10.064;2023-07-28T10:16:11;4.10;;;2.40;;
3274;SDS011;1649;53.672;10.064;2023-07-28T10:18:39;4.43;;;2.50;;
3274;SDS011;1649;53.672;10.064;2023-07-28T10:21:15;5.00;;;2.30;;
3274;SDS011;1649;53.672;10.064;2023-07-28T10:23:41;4.27;;;2.70;;
3274;SDS011;1649;53.672;10.064;2023-07-28T10:26:06;5.20;;;2.67;;
3274;SDS011;1649;53.672;10.064;2023-07-28T10:28:40;4.43;;;2.80;;
3274;SDS011;1649;53.672;10.064;2023-07-28T10:31:09;5.20;;;3.13;;
3274;SDS011;1649;53.672;10.064;2023-07-28T10:33:36;5.77;;;2.70;;
3274;SDS011;1649;53.672;10.064;2023-07-28T10:36:20;4.43;;;2.60;;
3274;SDS011;1649;53.672;10.064;2023-07-28T10:41:34;6.50;;;3.00;;
3274;SDS011;1649;53.672;10.064;2023-07-28T10:44:00;5.50;;;2.73;;
3274;SDS011;1649;53.672;10.064;2023-07-28T10:46:26;5.00;;;2.83;;
3274;SDS011;1649;53.672;10.064;2023-07-28T10:48:52;4.80;;;3.00;;
3274;SDS011;1649;53.672;10.064;2023-07-28T10:51:24;6.77;;;3.27;;
3274;SDS011;1649;53.672;10.064;2023-07-28T10:53:56;5.93;;;3.00;;
3274;SDS011;1649;53.672;10.064;2023-07-28T10:56:23;5.07;;;3.00;;
3274;SDS011;1649;53.672;10.064;2023-07-28T10:58:58;4.90;;;3.00;;
3274;SDS011;1649;53.672;10.064;2023-07-28T11:01:35;5.40;;;3.30;;
3274;SDS011;1649;53.672;10.064;2023-07-28T11:04:15;5.20;;;3.20;;
3274;SDS011;1649;53.672;10.064;2023-07-28T11:06:45;5.20;;;3.10;;
3274;SDS011;1649;53.672;10.064;2023-07-28T11:09:13;4.50;;;2.60;;
3274;SDS011;1649;53.672;10.064;2023-07-28T11:11:40;5.40;;;3.40;;
3274;SDS011;1649;53.672;10.064;2023-07-28T11:14:06;5.10;;;3.00;;
3274;SDS011;1649;53.672;10.064;2023-07-28T11:16:36;5.37;;;3.10;;
3274;SDS011;1649;53.672;10.064;2023-07-28T11:19:07;5.53;;;2.80;;
3274;SDS011;1649;53.672;10.064;2023-07-28T11:21:36;5.17;;;3.27;;
3274;SDS011;1649;53.672;10.064;2023-07-28T11:24:06;4.67;;;2.93;;
3274;SDS011;1649;53.672;10.064;2023-07-28T11:26:34;6.73;;;2.87;;
3274;SDS011;1649;53.672;10.064;2023-07-28T11:29:00;4.33;;;2.57;;
3274;SDS011;1649;53.672;10.064;2023-07-28T11:31:26;5.00;;;2.60;;
3274;SDS011;1649;53.672;10.064;2023-07-28T11:33:52;6.23;;;2.97;;
3274;SDS011;1649;53.672;10.064;2023-07-28T11:36:24;4.40;;;2.63;;
3274;SDS011;1649;53.672;10.064;2023-07-28T11:38:51;5.17;;;2.60;;
3274;SDS011;1649;53.672;10.064;2023-07-28T11:41:17;4.67;;;2.93;;
3274;SDS011;1649;53.672;10.064;2023-07-28T11:43:44;4.60;;;2.50;;
3274;SDS011;1649;53.672;10.064;2023-07-28T11:46:34;5.00;;;2.77;;
3274;SDS011;1649;53.672;10.064;2023-07-28T11:51:44;4.93;;;2.97;;
3274;SDS011;1649;53.672;10.064;2023-07-28T11:54:12;4.77;;;3.00;;
3274;SDS011;1649;53.672;10.064;2023-07-28T11:56:42;4.80;;;2.93;;
3274;SDS011;1649;53.672;10.064;2023-07-28T11:59:08;4.40;;;2.67;;
3274;SDS011;1649;53.672;10.064;2023-07-28T12:01:34;4.70;;;2.87;;
3274;SDS011;1649;53.672;10.064;2023-07-28T12:04:18;4.80;;;2.60;;
3274;SDS011;1649;53.672;10.064;2023-07-28T12:07:00;4.20;;;2.47;;
3274;SDS011;1649;53.672;10.064;2023-07-28T12:12:11;4.00;;;2.17;;
3274;SDS011;1649;53.672;10.064;2023-07-28T12:14:37;3.90;;;2.20;;
3274;SDS011;1649;53.672;10.064;2023-07-28T12:17:11;4.40;;;2.23;;
3274;SDS011;1649;53.672;10.064;2023-07-28T12:20:26;4.57;;;2.47;;
3274;SDS011;1649;53.672;10.064;2023-07-28T12:22:45;5.03;;;2.67;;
3274;SDS011;1649;53.672;10.064;2023-07-28T12:25:11;4.83;;;2.70;;
3274;SDS011;1649;53.672;10.064;2023-07-28T12:27:36;4.87;;;2.50;;
3274;SDS011;1649;53.672;10.064;2023-07-28T12:30:03;4.73;;;2.67;;
3274;SDS011;1649;53.672;10.064;2023-07-28T12:32:29;4.50;;;2.90;;
3274;SDS011;1649;53.672;10.064;2023-07-28T12:34:55;4.90;;;2.60;;
3274;SDS011;1649;53.672;10.064;2023-07-28T12:37:20;5.70;;;2.97;;
3274;SDS011;1649;53.672;10.064;2023-07-28T12:39:46;4.30;;;2.40;;
3274;SDS011;1649;53.672;10.064;2023-07-28T12:42:13;4.50;;;2.50;;
3274;SDS011;1649;53.672;10.064;2023-07-28T12:44:39;4.13;;;2.33;;
3274;SDS011;1649;53.672;10.064;2023-07-28T12:47:06;4.30;;;2.80;;
3274;SDS011;1649;53.672;10.064;2023-07-28T12:49:31;4.50;;;2.90;;
3274;SDS011;1649;53.672;10.064;2023-07-28T12:51:59;5.47;;;2.77;;
3274;SDS011;1649;53.672;10.064;2023-07-28T12:54:26;4.80;;;2.60;;
3274;SDS011;1649;53.672;10.064;2023-07-28T12:56:53;4.60;;;2.87;;
3274;SDS011;1649;53.672;10.064;2023-07-28T12:59:21;4.50;;;2.80;;
3274;SDS011;1649;53.672;10.064;2023-07-28T13:01:47;4.77;;;2.57;;
3274;SDS011;1649;53.672;10.064;2023-07-28T13:04:12;4.80;;;2.50;;
3274;SDS011;1649;53.672;10.064;2023-07-28T13:06:38;4.90;;;2.87;;
3274;SDS011;1649;53.672;10.064;2023-07-28T13:09:05;4.20;;;2.60;;
3274;SDS011;1649;53.672;10.064;2023-07-28T13:11:31;5.50;;;2.60;;
3274;SDS011;1649;53.672;10.064;2023-07-28T13:13:57;4.40;;;2.70;;
3274;SDS011;1649;53.672;10.064;2023-07-28T13:16:22;4.20;;;2.20;;
3274;SDS011;1649;53.672;10.064;2023-07-28T13:18:48;4.10;;;2.00;;
3274;SDS011;1649;53.672;10.064;2023-07-28T13:21:13;4.57;;;2.10;;
3274;SDS011;1649;53.672;10.064;2023-07-28T13:23:39;4.33;;;2.37;;
3274;SDS011;1649;53.672;10.064;2023-07-28T13:26:04;4.93;;;2.20;;
3274;SDS011;1649;53.672;10.064;2023-07-28T13:28:30;5.73;;;2.67;;
3274;SDS011;1649;53.672;10.064;2023-07-28T13:30:56;5.10;;;2.40;;
3274;SDS011;1649;53.672;10.064;2023-07-28T13:33:21;4.30;;;2.30;;
3274;SDS011;1649;53.672;10.064;2023-07-28T13:35:47;6.10;;;2.03;;
3274;SDS011;1649;53.672;10.064;2023-07-28T13:38:13;4.20;;;2.30;;
3274;SDS011;1649;53.672;10.064;2023-07-28T13:40:38;4.10;;;2.07;;
3274;SDS011;1649;53.672;10.064;2023-07-28T13:43:04;4.73;;;2.50;;
3274;SDS011;1649;53.672;10.064;2023-07-28T13:45:29;4.30;;;2.20;;
3274;SDS011;1649;53.672;10.064;2023-07-28T13:47:55;4.67;;;2.30;;
3274;SDS011;1649;53.672;10.064;2023-07-28T13:50:20;3.93;;;2.20;;
3274;SDS011;1649;53.672;10.064;2023-07-28T13:52:46;3.80;;;2.00;;
3274;SDS011;1649;53.672;10.064;2023-07-28T13:55:11;4.03;;;1.90;;
3274;SDS011;1649;53.672;10.064;2023-07-28T13:57:37;4.20;;;1.90;;
3274;SDS011;1649;53.672;10.064;2023-07-28T14:00:03;4.27;;;2.40;;
3274;SDS011;1649;53.672;10.064;2023-07-28T14:02:33;4.00;;;2.10;;
3274;SDS011;1649;53.672;10.064;2023-07-28T14:05:03;4.20;;;2.17;;
3274;SDS011;1649;53.672;10.064;2023-07-28T14:07:28;4.37;;;2.20;;
3274;SDS011;1649;53.672;10.064;2023-07-28T14:09:54;3.97;;;1.83;;
3274;SDS011;1649;53.672;10.064;2023-07-28T14:12:19;3.70;;;1.70;;
3274;SDS011;1649;53.672;10.064;2023-07-28T14:14:45;4.13;;;1.63;;
3274;SDS011;1649;53.672;10.064;2023-07-28T14:17:11;4.27;;;1.93;;
3274;SDS011;1649;53.672;10.064;2023-07-28T14:19:37;4.23;;;2.00;;
3274;SDS011;1649;53.672;10.064;2023-07-28T14:22:04;4.07;;;1.90;;
3274;SDS011;1649;53.672;10.064;2023-07-28T14:24:30;3.83;;;1.70;;
3274;SDS011;1649;53.672;10.064;2023-07-28T14:26:55;6.50;;;1.87;;
3274;SDS011;1649;53.672;10.064;2023-07-28T14:29:21;4.30;;;1.73;;
3274;SDS011;1649;53.672;10.064;2023-07-28T14:31:47;5.00;;;1.97;;
3274;SDS011;1649;53.672;10.064;2023-07-28T14:34:12;4.10;;;2.00;;
3274;SDS011;1649;53.672;10.064;2023-07-28T14:36:38;3.80;;;1.50;;
3274;SDS011;1649;53.672;10.064;2023-07-28T14:39:04;3.83;;;1.77;;
3274;SDS011;1649;53.672;10.064;2023-07-28T14:41:29;4.77;;;1.60;;
3274;SDS011;1649;53.672;10.064;2023-07-28T14:43:55;3.63;;;1.30;;
3274;SDS011;1649;53.672;10.064;2023-07-28T14:46:20;3.73;;;1.53;;
3274;SDS011;1649;53.672;10.064;2023-07-28T14:48:47;3.50;;;1.60;;
3274;SDS011;1649;53.672;10.064;2023-07-28T14:51:14;3.93;;;1.80;;
3274;SDS011;1649;53.672;10.064;2023-07-28T14:53:40;3.80;;;1.70;;
3274;SDS011;1649;53.672;10.064;2023-07-28T14:56:06;3.73;;;1.70;;
3274;SDS011;1649;53.672;10.064;2023-07-28T14:58:32;3.80;;;1.63;;